Time;durP1;ratioP1;P1;durP2;ratioP2;P2;SDS_P1;SDS_P2;PMS_P1;PMS_P2;Temp;Humidity;BMP_temperature;BMP_pressure;BME280_temperature;BME280_humidity;BME280_pressure;Samples;Min_cycle;Max_cycle;Signal;HPM_P1;HPM_P2
2022/09/21 00:01:23;;;;;;;;;;;10.50;99.90;;;;;;4990184;28;19933;-73
2022/09/21 00:03:52;;;;;;;;;;;10.50;99.90;;;;;;4989973;28;19932;-73
2022/09/21 00:06:19;;;;;;;;;;;10.50;99.90;;;;;;4989732;28;19949;-73
2022/09/21 00:08:45;;;;;;;;;;;10.50;99.90;;;;;;4988141;28;19925;-73
2022/09/21 00:11:11;;;;;;;;;;;10.50;99.90;;;;;;4999620;28;19931;-73
2022/09/21 00:13:37;;;;;;;;;;;10.50;99.90;;;;;;5008756;28;19926;-74
2022/09/21 00:16:07;;;;;;;;;;;10.50;99.90;;;;;;5008923;28;19936;-73
2022/09/21 00:18:32;;;;;;;;;;;10.50;99.90;;;;;;4999911;28;19932;-73
2022/09/21 00:20:58;;;;;;;;;;;10.40;99.90;;;;;;4991317;28;20013;-73
2022/09/21 00:23:24;;;;;;;;;;;10.40;99.90;;;;;;4990658;28;19922;-73
2022/09/21 00:25:50;;;;;;;;;;;10.40;99.90;;;;;;5006238;28;19936;-73
2022/09/21 00:28:15;;;;;;;;;;;10.40;99.90;;;;;;5010176;28;20367;-73
2022/09/21 00:30:41;;;;;;;;;;;10.40;99.90;;;;;;5009571;28;19932;-73
2022/09/21 00:33:06;;;;;;;;;;;10.40;99.90;;;;;;5010176;28;20016;-73
2022/09/21 00:35:32;;;;;;;;;;;10.40;99.90;;;;;;5009571;28;20383;-74
2022/09/21 00:38:01;;;;;;;;;;;10.40;99.90;;;;;;5010269;28;20053;-73
2022/09/21 00:40:27;;;;;;;;;;;10.40;99.90;;;;;;5008374;28;20426;-73
2022/09/21 00:42:53;;;;;;;;;;;10.40;99.90;;;;;;5009427;28;20307;-73
2022/09/21 00:45:21;;;;;;;;;;;10.40;99.90;;;;;;5009808;28;19936;-73
2022/09/21 00:47:51;;;;;;;;;;;10.40;99.90;;;;;;5007946;28;19926;-73
2022/09/21 00:50:19;;;;;;;;;;;10.50;99.90;;;;;;4990450;28;20285;-74
2022/09/21 00:52:56;;;;;;;;;;;10.40;99.90;;;;;;4989761;28;20376;-73
2022/09/21 00:55:24;;;;;;;;;;;10.50;99.90;;;;;;4988093;28;19926;-73
2022/09/21 00:57:52;;;;;;;;;;;10.50;99.90;;;;;;4989703;28;20667;-73
2022/09/21 01:00:18;;;;;;;;;;;10.50;99.90;;;;;;4989062;28;19980;-73
2022/09/21 01:02:44;;;;;;;;;;;10.50;99.90;;;;;;4994250;28;19926;-73
2022/09/21 01:05:10;;;;;;;;;;;10.50;99.90;;;;;;5006439;28;20012;-73
2022/09/21 01:07:37;;;;;;;;;;;10.40;99.90;;;;;;4987813;28;20021;-73
2022/09/21 01:10:09;;;;;;;;;;;10.40;99.90;;;;;;4988847;28;20012;-73
2022/09/21 01:12:46;;;;;;;;;;;10.40;99.90;;;;;;4989654;28;20320;-73
2022/09/21 01:15:11;;;;;;;;;;;10.40;99.90;;;;;;5005042;28;19991;-73
2022/09/21 01:17:43;;;;;;;;;;;10.30;99.90;;;;;;4990568;28;20420;-73
2022/09/21 01:20:30;;;;;;;;;;;10.30;99.90;;;;;;4989483;28;20442;-73
2022/09/21 01:23:02;;;;;;;;;;;10.30;99.90;;;;;;4989867;28;19925;-73
2022/09/21 01:25:33;;;;;;;;;;;10.30;99.90;;;;;;5002853;28;19983;-73
2022/09/21 01:28:08;;;;;;;;;;;10.20;99.90;;;;;;5005541;28;19971;-73
2022/09/21 01:30:36;;;;;;;;;;;10.20;99.90;;;;;;5007182;28;19925;-73
2022/09/21 01:33:05;;;;;;;;;;;10.10;99.90;;;;;;5007800;28;20014;-73
2022/09/21 01:35:36;;;;;;;;;;;10.10;99.90;;;;;;5008431;28;19929;-74
2022/09/21 01:38:04;;;;;;;;;;;10.00;99.90;;;;;;5009234;28;19925;-73
2022/09/21 01:40:35;;;;;;;;;;;10.00;99.90;;;;;;5007749;28;19933;-75
2022/09/21 01:43:02;;;;;;;;;;;10.00;99.90;;;;;;4993412;28;20300;-74
2022/09/21 01:45:32;;;;;;;;;;;10.00;99.90;;;;;;4989591;28;19925;-73
2022/09/21 01:47:59;;;;;;;;;;;9.90;99.90;;;;;;5006888;28;19977;-73
2022/09/21 01:50:25;;;;;;;;;;;9.90;99.90;;;;;;4993628;28;19953;-73
2022/09/21 01:53:17;;;;;;;;;;;9.90;99.90;;;;;;5007080;28;20025;-73
2022/09/21 01:55:52;;;;;;;;;;;9.90;99.90;;;;;;5007576;28;19929;-73
2022/09/21 01:58:21;;;;;;;;;;;9.80;99.90;;;;;;5007878;28;19930;-74
2022/09/21 02:00:50;;;;;;;;;;;9.90;99.90;;;;;;5008478;28;19933;-73
2022/09/21 02:03:33;;;;;;;;;;;9.90;99.90;;;;;;5008485;28;19969;-73
2022/09/21 02:05:59;;;;;;;;;;;9.90;99.90;;;;;;5008618;28;19932;-73
2022/09/21 02:08:28;;;;;;;;;;;9.90;99.90;;;;;;5007655;28;19926;-73
2022/09/21 02:10:54;;;;;;;;;;;9.80;99.90;;;;;;5008050;28;19932;-73
2022/09/21 02:13:22;;;;;;;;;;;9.80;99.90;;;;;;4990773;28;19929;-73
2022/09/21 02:16:05;;;;;;;;;;;9.80;99.90;;;;;;4988369;28;19932;-73
2022/09/21 02:18:39;;;;;;;;;;;9.80;99.90;;;;;;4987038;28;19926;-74
2022/09/21 02:21:07;;;;;;;;;;;9.70;99.90;;;;;;4989095;28;19973;-73
2022/09/21 02:23:46;;;;;;;;;;;9.80;99.90;;;;;;4987953;28;19930;-73
2022/09/21 02:26:25;;;;;;;;;;;9.70;99.90;;;;;;4987254;28;19926;-73
2022/09/21 02:29:06;;;;;;;;;;;9.70;99.90;;;;;;4987168;28;19988;-73
2022/09/21 02:31:46;;;;;;;;;;;9.70;99.90;;;;;;4988214;28;19925;-73
2022/09/21 02:34:33;;;;;;;;;;;9.70;99.90;;;;;;4988509;28;19926;-73
2022/09/21 02:37:21;;;;;;;;;;;9.70;99.90;;;;;;4991196;28;19980;-73
2022/09/21 02:39:48;;;;;;;;;;;9.70;99.90;;;;;;5005640;28;19925;-73
2022/09/21 02:42:19;;;;;;;;;;;9.70;99.90;;;;;;5008132;28;19925;-73
2022/09/21 02:44:46;;;;;;;;;;;9.70;99.90;;;;;;4992674;28;20101;-73
2022/09/21 02:47:15;;;;;;;;;;;9.60;99.90;;;;;;4989456;28;19926;-73
2022/09/21 02:49:44;;;;;;;;;;;9.60;99.90;;;;;;5007482;28;20388;-73
2022/09/21 02:52:12;;;;;;;;;;;9.60;99.90;;;;;;5008128;28;20327;-73
2022/09/21 02:54:39;;;;;;;;;;;9.60;99.90;;;;;;5005497;28;20025;-73
2022/09/21 02:57:05;;;;;;;;;;;9.60;99.90;;;;;;5006518;28;19925;-73
2022/09/21 02:59:31;;;;;;;;;;;9.50;99.90;;;;;;5007330;28;20439;-74
2022/09/21 03:01:57;;;;;;;;;;;9.50;99.90;;;;;;5008533;28;19926;-73
2022/09/21 03:04:23;;;;;;;;;;;9.50;99.90;;;;;;5007774;28;20295;-73
2022/09/21 03:06:48;;;;;;;;;;;9.50;99.90;;;;;;5007656;28;19987;-73
2022/09/21 03:09:14;;;;;;;;;;;9.40;99.90;;;;;;4999811;28;19969;-74
2022/09/21 03:11:42;;;;;;;;;;;9.40;99.90;;;;;;4989276;28;19930;-73
2022/09/21 03:14:07;;;;;;;;;;;9.40;99.90;;;;;;4991942;28;19926;-73
2022/09/21 03:16:36;;;;;;;;;;;9.40;99.90;;;;;;4991653;28;19929;-73
2022/09/21 03:19:02;;;;;;;;;;;9.40;99.90;;;;;;4991877;28;19926;-74
2022/09/21 03:21:28;;;;;;;;;;;9.30;99.90;;;;;;4992322;28;20328;-73
2022/09/21 03:23:54;;;;;;;;;;;9.30;99.90;;;;;;4991779;28;20012;-73
2022/09/21 03:26:21;;;;;;;;;;;9.40;99.90;;;;;;5010457;28;20033;-73
2022/09/21 03:28:47;;;;;;;;;;;9.30;99.90;;;;;;5011071;28;20411;-73
2022/09/21 03:31:13;;;;;;;;;;;9.40;99.90;;;;;;5010693;28;19932;-73
2022/09/21 03:33:38;;;;;;;;;;;9.40;99.90;;;;;;5010984;28;19925;-73
2022/09/21 03:36:04;;;;;;;;;;;9.40;99.90;;;;;;5010719;28;20036;-73
2022/09/21 03:38:29;;;;;;;;;;;9.40;99.90;;;;;;5010423;28;20302;-74
2022/09/21 03:40:56;;;;;;;;;;;9.40;99.90;;;;;;5010187;28;19937;-73
2022/09/21 03:43:22;;;;;;;;;;;9.30;99.90;;;;;;5010777;28;20067;-73
2022/09/21 03:45:48;;;;;;;;;;;9.30;99.90;;;;;;5010848;28;20737;-73
2022/09/21 03:48:14;;;;;;;;;;;9.30;99.90;;;;;;5001904;28;19932;-74
2022/09/21 03:50:39;;;;;;;;;;;9.30;99.90;;;;;;4990765;28;20661;-73
2022/09/21 03:53:05;;;;;;;;;;;9.40;99.90;;;;;;4990719;28;20012;-73
2022/09/21 03:55:32;;;;;;;;;;;9.40;99.90;;;;;;4998482;28;19972;-74
2022/09/21 03:57:57;;;;;;;;;;;9.40;99.90;;;;;;5010124;28;19929;-73
2022/09/21 04:00:23;;;;;;;;;;;9.40;99.90;;;;;;5010589;28;19929;-73
2022/09/21 04:02:48;;;;;;;;;;;9.40;99.90;;;;;;5010350;28;20000;-73
2022/09/21 04:05:14;;;;;;;;;;;9.40;99.90;;;;;;5010417;28;19925;-74
2022/09/21 04:07:41;;;;;;;;;;;9.40;99.90;;;;;;5010074;28;20387;-73
2022/09/21 04:10:11;;;;;;;;;;;9.30;99.90;;;;;;5009498;28;19988;-73
2022/09/21 04:12:37;;;;;;;;;;;9.30;99.90;;;;;;5010366;28;20399;-73
2022/09/21 04:15:06;;;;;;;;;;;9.30;99.90;;;;;;5010182;28;20012;-73
2022/09/21 04:17:32;;;;;;;;;;;9.20;99.90;;;;;;5006259;28;19926;-74
2022/09/21 04:19:58;;;;;;;;;;;9.20;99.90;;;;;;4991050;28;19926;-73
2022/09/21 04:22:23;;;;;;;;;;;9.20;99.90;;;;;;4990595;28;19921;-73
2022/09/21 04:24:49;;;;;;;;;;;9.20;99.90;;;;;;4999056;28;19930;-73
2022/09/21 04:27:15;;;;;;;;;;;9.20;99.90;;;;;;5009246;28;19925;-73
2022/09/21 04:29:41;;;;;;;;;;;9.20;99.90;;;;;;5009619;28;19937;-73
2022/09/21 04:32:06;;;;;;;;;;;9.20;99.90;;;;;;5010095;28;19925;-73
2022/09/21 04:34:32;;;;;;;;;;;9.20;99.90;;;;;;5009593;28;19925;-73
2022/09/21 04:36:58;;;;;;;;;;;9.20;99.90;;;;;;5010425;28;20015;-73
2022/09/21 04:39:24;;;;;;;;;;;9.20;99.90;;;;;;5007844;28;19996;-73
2022/09/21 04:41:49;;;;;;;;;;;9.20;99.90;;;;;;5009743;28;19929;-73
2022/09/21 04:44:17;;;;;;;;;;;9.10;99.90;;;;;;4995480;28;19932;-73
2022/09/21 04:46:42;;;;;;;;;;;9.10;99.90;;;;;;5006156;28;20036;-73
2022/09/21 04:49:09;;;;;;;;;;;9.10;99.90;;;;;;5009044;28;19969;-74
2022/09/21 04:51:35;;;;;;;;;;;9.10;99.90;;;;;;5006212;28;19925;-73
2022/09/21 04:54:01;;;;;;;;;;;9.10;99.90;;;;;;5001844;28;19926;-74
2022/09/21 04:56:26;;;;;;;;;;;9.00;99.90;;;;;;5009390;28;19972;-74
2022/09/21 04:58:52;;;;;;;;;;;9.10;99.90;;;;;;5015372;28;19925;-73
2022/09/21 05:01:17;;;;;;;;;;;9.00;99.90;;;;;;5009364;28;19987;-74
2022/09/21 05:03:43;;;;;;;;;;;9.00;99.90;;;;;;5009070;28;20384;-72
2022/09/21 05:06:12;;;;;;;;;;;9.00;99.90;;;;;;5010904;28;20008;-73
2022/09/21 05:11:23;;;;;;;;;;;9.00;99.90;;;;;;5002730;28;20521;-73
2022/09/21 05:13:49;;;;;;;;;;;9.00;99.90;;;;;;5008983;28;20448;-73
2022/09/21 05:16:16;;;;;;;;;;;9.00;99.90;;;;;;5000247;28;19949;-73
2022/09/21 05:18:41;;;;;;;;;;;9.00;99.90;;;;;;4996210;28;20093;-74
2022/09/21 05:21:08;;;;;;;;;;;9.00;99.90;;;;;;4998666;28;19926;-73
2022/09/21 05:23:34;;;;;;;;;;;9.00;99.90;;;;;;5002164;28;20013;-74
2022/09/21 05:25:59;;;;;;;;;;;9.00;99.90;;;;;;4999498;28;20020;-75
2022/09/21 05:28:25;;;;;;;;;;;9.00;99.90;;;;;;5002583;28;20012;-74
2022/09/21 05:31:11;;;;;;;;;;;9.10;99.90;;;;;;5008794;28;19936;-78
2022/09/21 05:33:37;;;;;;;;;;;9.10;99.90;;;;;;4998614;28;19932;-80
2022/09/21 05:36:21;;;;;;;;;;;9.10;99.90;;;;;;5004758;28;19936;-76
2022/09/21 05:38:47;;;;;;;;;;;9.10;99.90;;;;;;5011420;28;20048;-77
2022/09/21 05:41:12;;;;;;;;;;;9.10;99.90;;;;;;5011586;28;19988;-77
2022/09/21 05:43:38;;;;;;;;;;;9.10;99.90;;;;;;5013131;28;19926;-72
2022/09/21 05:46:08;;;;;;;;;;;9.20;99.90;;;;;;4998118;28;19933;-74
2022/09/21 05:48:40;;;;;;;;;;;9.10;99.90;;;;;;5001984;28;19995;-74
2022/09/21 05:51:25;;;;;;;;;;;9.10;99.90;;;;;;5002720;28;19929;-75
2022/09/21 05:53:53;;;;;;;;;;;9.20;99.90;;;;;;5000071;28;19931;-74
2022/09/21 05:56:18;;;;;;;;;;;9.10;99.90;;;;;;5000097;28;19955;-73
2022/09/21 05:59:10;;;;;;;;;;;9.20;99.90;;;;;;4992765;28;19972;-76
2022/09/21 06:01:42;;;;;;;;;;;9.20;99.90;;;;;;4980189;28;19961;-75
2022/09/21 06:04:10;;;;;;;;;;;9.20;99.90;;;;;;4991144;28;19972;-75
2022/09/21 06:06:36;;;;;;;;;;;9.20;99.90;;;;;;4995706;28;19926;-76
2022/09/21 06:09:01;;;;;;;;;;;9.20;99.90;;;;;;4996199;28;19933;-76
2022/09/21 06:11:26;;;;;;;;;;;9.20;99.90;;;;;;5007860;28;19926;-75
2022/09/21 06:13:52;;;;;;;;;;;9.30;99.90;;;;;;5000882;28;19935;-76
2022/09/21 06:16:17;;;;;;;;;;;9.30;99.90;;;;;;4995083;28;19992;-76
2022/09/21 06:18:43;;;;;;;;;;;9.30;99.90;;;;;;4999244;28;20228;-76
2022/09/21 06:21:08;;;;;;;;;;;9.30;99.90;;;;;;5003860;28;20112;-76
2022/09/21 06:23:34;;;;;;;;;;;9.30;99.90;;;;;;4995601;28;20396;-75
2022/09/21 06:26:00;;;;;;;;;;;9.20;99.90;;;;;;5001487;28;19996;-77
2022/09/21 06:28:26;;;;;;;;;;;9.30;99.90;;;;;;4996334;28;19932;-76
2022/09/21 06:30:52;;;;;;;;;;;9.30;99.90;;;;;;4996731;28;20388;-76
2022/09/21 06:33:22;;;;;;;;;;;9.30;99.90;;;;;;5004844;28;20570;-75
2022/09/21 06:35:51;;;;;;;;;;;9.40;99.90;;;;;;5006283;28;19971;-75
2022/09/21 06:38:16;;;;;;;;;;;9.40;99.90;;;;;;5006033;28;19929;-75
2022/09/21 06:40:42;;;;;;;;;;;9.40;99.90;;;;;;5006502;28;20379;-75
2022/09/21 06:43:07;;;;;;;;;;;9.40;99.90;;;;;;5005568;28;20380;-75
2022/09/21 06:45:33;;;;;;;;;;;9.50;99.90;;;;;;5009203;28;20021;-76
2022/09/21 06:47:58;;;;;;;;;;;9.50;99.90;;;;;;5010822;28;20396;-76
2022/09/21 06:50:24;;;;;;;;;;;9.50;99.90;;;;;;5010575;28;19932;-75
2022/09/21 06:52:50;;;;;;;;;;;9.60;99.90;;;;;;5007970;28;19955;-76
2022/09/21 06:55:15;;;;;;;;;;;9.70;99.90;;;;;;5010186;28;20016;-76
2022/09/21 06:57:42;;;;;;;;;;;9.70;99.90;;;;;;5009644;28;19932;-77
2022/09/21 07:00:09;;;;;;;;;;;9.70;99.90;;;;;;5010634;28;19952;-75
2022/09/21 07:02:34;;;;;;;;;;;9.80;99.90;;;;;;5009968;28;19929;-75
2022/09/21 07:05:00;;;;;;;;;;;9.90;99.90;;;;;;5010433;28;19926;-77
2022/09/21 07:07:29;;;;;;;;;;;10.00;99.90;;;;;;5010275;28;20015;-76
2022/09/21 07:09:54;;;;;;;;;;;10.00;99.90;;;;;;5010644;28;19925;-74
2022/09/21 07:12:20;;;;;;;;;;;10.10;99.90;;;;;;5010460;28;19948;-76
2022/09/21 07:14:46;;;;;;;;;;;10.10;99.90;;;;;;5009929;28;19948;-75
2022/09/21 07:17:13;;;;;;;;;;;10.20;99.90;;;;;;5010310;28;19929;-77
2022/09/21 07:19:39;;;;;;;;;;;10.20;99.90;;;;;;5009991;28;20020;-77
2022/09/21 07:22:04;;;;;;;;;;;10.30;99.90;;;;;;5010337;28;20025;-76
2022/09/21 07:24:30;;;;;;;;;;;10.30;99.90;;;;;;5001729;28;19930;-76
2022/09/21 07:26:56;;;;;;;;;;;10.40;99.90;;;;;;4990958;28;20392;-76
2022/09/21 07:29:22;;;;;;;;;;;10.40;99.90;;;;;;4989056;28;19932;-77
2022/09/21 07:31:47;;;;;;;;;;;10.40;99.90;;;;;;4989842;28;19948;-75
2022/09/21 07:34:13;;;;;;;;;;;10.50;99.90;;;;;;4990353;28;19980;-75
2022/09/21 07:36:38;;;;;;;;;;;10.50;99.90;;;;;;4990120;28;19980;-76
2022/09/21 07:39:04;;;;;;;;;;;10.60;99.90;;;;;;4989790;28;19973;-75
2022/09/21 07:41:30;;;;;;;;;;;10.70;99.90;;;;;;4988801;28;19926;-77
2022/09/21 07:43:55;;;;;;;;;;;10.70;99.90;;;;;;4990389;28;20014;-75
2022/09/21 07:46:21;;;;;;;;;;;10.80;99.90;;;;;;4990353;28;19956;-75
2022/09/21 07:48:46;;;;;;;;;;;10.80;99.90;;;;;;4989897;28;20304;-76
2022/09/21 07:51:13;;;;;;;;;;;10.90;99.90;;;;;;4988659;28;20446;-77
2022/09/21 07:53:39;;;;;;;;;;;11.00;99.90;;;;;;4988897;28;20019;-76
2022/09/21 07:56:09;;;;;;;;;;;11.10;99.90;;;;;;4989233;28;20056;-75
2022/09/21 08:01:19;;;;;;;;;;;11.20;99.90;;;;;;4989950;28;20359;-76
2022/09/21 08:03:47;;;;;;;;;;;11.20;99.90;;;;;;4989412;28;19952;-75
2022/09/21 08:06:12;;;;;;;;;;;11.30;99.90;;;;;;4990027;28;19937;-75
2022/09/21 08:08:38;;;;;;;;;;;11.40;99.90;;;;;;4988267;28;19930;-75
2022/09/21 08:11:04;;;;;;;;;;;11.50;99.90;;;;;;4989649;28;20480;-75
2022/09/21 08:13:30;;;;;;;;;;;11.50;99.90;;;;;;4989409;28;19926;-77
2022/09/21 08:16:00;;;;;;;;;;;11.60;99.90;;;;;;4989158;28;19930;-75
2022/09/21 08:18:26;;;;;;;;;;;11.60;99.90;;;;;;4990054;28;19926;-76
2022/09/21 08:20:58;;;;;;;;;;;11.70;99.90;;;;;;4989094;28;20351;-75
2022/09/21 08:23:25;;;;;;;;;;;11.70;99.90;;;;;;4988577;28;19925;-75
2022/09/21 08:25:51;;;;;;;;;;;11.80;99.90;;;;;;5007224;28;19933;-76
2022/09/21 08:28:17;;;;;;;;;;;11.80;99.90;;;;;;5008973;28;19926;-76
2022/09/21 08:30:43;;;;;;;;;;;11.80;99.90;;;;;;5008508;28;20359;-76
2022/09/21 08:33:08;;;;;;;;;;;11.90;99.90;;;;;;5008804;28;20024;-77
2022/09/21 08:35:35;;;;;;;;;;;11.90;99.90;;;;;;5007238;28;19928;-76
2022/09/21 08:38:00;;;;;;;;;;;12.00;99.90;;;;;;5007740;28;19956;-76
2022/09/21 08:40:26;;;;;;;;;;;12.00;99.90;;;;;;5009119;28;19979;-75
2022/09/21 08:42:58;;;;;;;;;;;12.00;99.90;;;;;;5007282;28;20380;-75
2022/09/21 08:45:27;;;;;;;;;;;12.10;99.90;;;;;;5007443;28;20346;-75
2022/09/21 08:47:55;;;;;;;;;;;12.10;99.90;;;;;;5023618;28;19960;-77
2022/09/21 08:50:20;;;;;;;;;;;12.20;99.90;;;;;;5008221;28;19932;-76
2022/09/21 08:52:47;;;;;;;;;;;12.20;99.90;;;;;;5005567;28;19929;-75
2022/09/21 08:55:17;;;;;;;;;;;12.30;99.90;;;;;;5001132;28;19926;-76
2022/09/21 08:57:43;;;;;;;;;;;12.30;99.90;;;;;;5000826;28;19933;-76
2022/09/21 09:00:16;;;;;;;;;;;12.40;99.90;;;;;;5008915;28;19926;-78
2022/09/21 09:02:44;;;;;;;;;;;12.30;99.90;;;;;;5004126;28;19973;-76
2022/09/21 09:05:16;;;;;;;;;;;12.30;99.90;;;;;;4986416;28;19949;-76
2022/09/21 09:07:48;;;;;;;;;;;12.30;99.90;;;;;;4989470;28;19930;-76
2022/09/21 09:10:31;;;;;;;;;;;12.30;99.90;;;;;;5003526;28;19932;-76
2022/09/21 09:12:57;;;;;;;;;;;12.30;99.90;;;;;;4993512;28;20391;-76
2022/09/21 09:15:37;;;;;;;;;;;12.40;99.90;;;;;;5008561;28;19936;-76
2022/09/21 09:18:25;;;;;;;;;;;12.40;99.90;;;;;;5007110;28;19926;-75
2022/09/21 09:20:59;;;;;;;;;;;12.50;99.90;;;;;;5007706;28;20338;-75
2022/09/21 09:23:38;;;;;;;;;;;12.50;99.90;;;;;;5022352;28;19956;-77
2022/09/21 09:26:08;;;;;;;;;;;12.60;99.90;;;;;;5003442;28;19925;-75
2022/09/21 09:28:56;;;;;;;;;;;12.60;99.90;;;;;;5008180;28;19932;-76
2022/09/21 09:31:24;;;;;;;;;;;12.70;99.90;;;;;;5009253;28;19929;-76
2022/09/21 09:34:09;;;;;;;;;;;12.70;99.90;;;;;;5001703;28;19973;-76
2022/09/21 09:36:36;;;;;;;;;;;12.70;99.90;;;;;;4988318;28;19926;-76
2022/09/21 09:39:04;;;;;;;;;;;12.80;99.90;;;;;;4997228;28;20016;-76
2022/09/21 09:41:48;;;;;;;;;;;12.90;99.90;;;;;;4999064;28;20000;-78
2022/09/21 09:44:28;;;;;;;;;;;12.90;99.90;;;;;;5006419;28;20008;-76
2022/09/21 09:47:03;;;;;;;;;;;13.00;99.90;;;;;;5007856;28;19925;-76
2022/09/21 09:49:34;;;;;;;;;;;13.00;99.90;;;;;;5007024;28;19925;-76
2022/09/21 09:52:00;;;;;;;;;;;13.10;99.90;;;;;;4987590;28;19926;-78
2022/09/21 09:54:26;;;;;;;;;;;13.10;99.90;;;;;;4993519;28;19928;-76
2022/09/21 09:56:54;;;;;;;;;;;13.20;99.90;;;;;;5007745;28;20121;-76
2022/09/21 09:59:31;;;;;;;;;;;13.20;99.90;;;;;;5003314;28;20027;-77
2022/09/21 10:01:58;;;;;;;;;;;13.20;99.90;;;;;;5023828;28;19925;-79
2022/09/21 10:04:23;;;;;;;;;;;13.30;99.90;;;;;;5007798;28;19933;-79
2022/09/21 10:06:49;;;;;;;;;;;13.30;99.90;;;;;;5022825;28;20303;-80
2022/09/21 10:09:18;;;;;;;;;;;13.40;99.90;;;;;;5005335;28;19932;-80
2022/09/21 10:11:43;;;;;;;;;;;13.50;99.90;;;;;;5007181;28;20017;-80
2022/09/21 10:14:12;;;;;;;;;;;13.50;99.90;;;;;;5023195;28;20020;-80
2022/09/21 10:16:41;;;;;;;;;;;13.60;99.90;;;;;;5007477;28;19926;-80
2022/09/21 10:19:13;;;;;;;;;;;13.60;99.90;;;;;;5005206;28;19933;-80
2022/09/21 10:21:42;;;;;;;;;;;13.60;99.90;;;;;;4987564;28;19932;-78
2022/09/21 10:24:26;;;;;;;;;;;13.70;99.90;;;;;;5002458;28;19926;-79
2022/09/21 10:26:54;;;;;;;;;;;13.70;99.90;;;;;;4987762;28;19930;-76
2022/09/21 10:29:20;;;;;;;;;;;13.70;99.90;;;;;;4990443;28;19929;-76
2022/09/21 10:32:00;;;;;;;;;;;13.70;99.90;;;;;;5006600;28;19925;-77
2022/09/21 10:34:26;;;;;;;;;;;13.80;99.90;;;;;;4988278;28;19981;-77
2022/09/21 10:36:54;;;;;;;;;;;13.80;99.90;;;;;;4995889;28;19925;-79
2022/09/21 10:39:23;;;;;;;;;;;13.70;99.90;;;;;;5006417;28;19934;-78
2022/09/21 10:41:53;;;;;;;;;;;13.80;99.90;;;;;;5005568;28;19948;-76
2022/09/21 10:44:19;;;;;;;;;;;13.80;99.90;;;;;;5006278;28;19925;-78
2022/09/21 10:46:46;;;;;;;;;;;13.80;99.90;;;;;;5007106;28;20391;-79
2022/09/21 10:49:13;;;;;;;;;;;13.90;99.90;;;;;;5001045;28;19938;-79
2022/09/21 10:51:39;;;;;;;;;;;13.90;99.90;;;;;;4992752;28;19995;-78
2022/09/21 10:54:07;;;;;;;;;;;14.00;99.90;;;;;;4984495;28;20455;-80
2022/09/21 10:56:33;;;;;;;;;;;13.90;99.90;;;;;;4986183;28;19929;-78
2022/09/21 10:59:12;;;;;;;;;;;13.90;99.90;;;;;;4987452;28;19932;-77
2022/09/21 11:01:45;;;;;;;;;;;13.90;99.90;;;;;;4986348;28;19926;-77
2022/09/21 11:04:30;;;;;;;;;;;13.90;99.90;;;;;;4986952;28;19930;-78
2022/09/21 11:07:06;;;;;;;;;;;14.00;99.90;;;;;;4975274;28;19926;-78
2022/09/21 11:09:38;;;;;;;;;;;14.00;99.90;;;;;;4986115;28;20431;-78
2022/09/21 11:12:04;;;;;;;;;;;14.10;99.90;;;;;;4987101;28;19933;-78
2022/09/21 11:14:32;;;;;;;;;;;14.10;99.90;;;;;;4986488;28;20328;-80
2022/09/21 11:17:07;;;;;;;;;;;14.20;99.90;;;;;;4987642;28;19925;-77
2022/09/21 11:19:37;;;;;;;;;;;14.20;99.90;;;;;;4986100;28;20392;-78
2022/09/21 11:22:06;;;;;;;;;;;14.20;99.90;;;;;;4986004;28;19938;-79
2022/09/21 11:24:39;;;;;;;;;;;14.30;99.90;;;;;;4993693;28;19987;-78
2022/09/21 11:27:10;;;;;;;;;;;14.30;99.90;;;;;;5006365;28;19926;-78
2022/09/21 11:29:38;;;;;;;;;;;14.20;99.90;;;;;;5005877;28;19926;-78
2022/09/21 11:32:09;;;;;;;;;;;14.30;99.90;;;;;;5008032;28;19929;-79
2022/09/21 11:34:34;;;;;;;;;;;14.20;99.90;;;;;;5009396;28;19925;-78
2022/09/21 11:37:08;;;;;;;;;;;14.40;99.90;;;;;;4998641;28;19984;-78
2022/09/21 11:39:53;;;;;;;;;;;14.40;99.90;;;;;;4989593;28;20024;-78
2022/09/21 11:42:28;;;;;;;;;;;14.40;99.90;;;;;;4990066;28;20355;-77
2022/09/21 11:44:56;;;;;;;;;;;14.50;99.90;;;;;;5004808;28;19999;-77
2022/09/21 11:47:40;;;;;;;;;;;14.50;99.90;;;;;;4990215;28;19973;-79
2022/09/21 11:50:06;;;;;;;;;;;14.50;99.90;;;;;;4988316;28;19925;-76
2022/09/21 11:52:39;;;;;;;;;;;14.50;99.90;;;;;;4988665;28;20265;-83
2022/09/21 11:55:38;;;;;;;;;;;14.50;99.90;;;;;;4989132;28;19925;-82
2022/09/21 11:58:05;;;;;;;;;;;14.50;99.90;;;;;;5004765;28;19973;-78
2022/09/21 12:00:36;;;;;;;;;;;14.50;99.90;;;;;;4989752;28;19922;-78
2022/09/21 12:03:01;;;;;;;;;;;14.60;99.90;;;;;;4988467;28;19926;-77
2022/09/21 12:05:27;;;;;;;;;;;14.50;99.90;;;;;;4990035;28;19953;-77
2022/09/21 12:08:02;;;;;;;;;;;14.50;99.90;;;;;;4988355;28;20371;-77
2022/09/21 12:10:27;;;;;;;;;;;14.50;99.90;;;;;;4989738;28;20375;-76
2022/09/21 12:12:57;;;;;;;;;;;14.50;99.90;;;;;;4989507;28;19926;-78
2022/09/21 12:15:26;;;;;;;;;;;14.50;99.90;;;;;;4989601;28;19930;-77
2022/09/21 12:17:51;;;;;;;;;;;14.50;99.90;;;;;;4989247;28;19929;-77
2022/09/21 12:20:26;;;;;;;;;;;14.60;99.90;;;;;;4988719;28;19926;-76
2022/09/21 12:22:56;;;;;;;;;;;14.50;99.90;;;;;;4999570;28;19926;-81
2022/09/21 12:25:31;;;;;;;;;;;14.60;99.90;;;;;;5002706;28;19930;-79
2022/09/21 12:27:56;;;;;;;;;;;14.60;99.90;;;;;;5006218;28;20016;-83
2022/09/21 12:30:22;;;;;;;;;;;14.70;99.90;;;;;;5008054;28;20008;-77
2022/09/21 12:33:00;;;;;;;;;;;14.80;99.90;;;;;;5008148;28;19926;-77
2022/09/21 12:35:32;;;;;;;;;;;14.70;99.90;;;;;;5008219;28;20014;-79
2022/09/21 12:38:02;;;;;;;;;;;14.70;99.90;;;;;;4990946;28;19980;-79
2022/09/21 12:40:50;;;;;;;;;;;14.70;99.90;;;;;;5008621;28;19926;-79
2022/09/21 12:43:21;;;;;;;;;;;14.60;99.90;;;;;;5006673;28;19935;-79
2022/09/21 12:45:52;;;;;;;;;;;14.60;99.90;;;;;;5008251;28;20141;-79
2022/09/21 12:48:41;;;;;;;;;;;14.50;99.90;;;;;;5008449;28;19983;-79
2022/09/21 12:51:12;;;;;;;;;;;14.40;99.90;;;;;;5008327;28;19933;-79
2022/09/21 12:53:40;;;;;;;;;;;14.40;99.90;;;;;;5006354;28;19948;-78
2022/09/21 12:56:05;;;;;;;;;;;14.40;99.90;;;;;;5002261;28;19930;-81
2022/09/21 12:58:36;;;;;;;;;;;14.40;99.90;;;;;;5005457;28;19928;-79
2022/09/21 13:01:08;;;;;;;;;;;14.30;99.90;;;;;;5005319;28;20265;-90
2022/09/21 13:03:40;;;;;;;;;;;14.30;99.90;;;;;;5008134;28;20356;-83
2022/09/21 13:06:28;;;;;;;;;;;14.30;99.90;;;;;;5004491;28;20299;-80
2022/09/21 13:08:54;;;;;;;;;;;14.20;99.90;;;;;;4992593;28;20043;-81
2022/09/21 13:11:21;;;;;;;;;;;14.20;99.90;;;;;;5013221;28;19929;-86
2022/09/21 13:13:52;;;;;;;;;;;14.20;99.90;;;;;;4994129;28;19925;-81
2022/09/21 13:16:28;;;;;;;;;;;14.20;99.90;;;;;;5014478;28;19983;-80
2022/09/21 13:18:55;;;;;;;;;;;14.20;99.90;;;;;;5002415;28;19926;-86
2022/09/21 13:21:25;;;;;;;;;;;14.30;99.90;;;;;;4999663;28;19926;-85
2022/09/21 13:24:01;;;;;;;;;;;14.30;99.90;;;;;;5006877;28;20303;-86
2022/09/21 13:26:30;;;;;;;;;;;14.30;99.90;;;;;;4999372;28;19932;-87
2022/09/21 13:28:59;;;;;;;;;;;14.40;99.90;;;;;;5008188;28;19925;-87
2022/09/21 13:31:43;;;;;;;;;;;14.40;99.90;;;;;;4988940;28;19926;-91
2022/09/21 13:34:14;;;;;;;;;;;14.50;99.90;;;;;;4999889;28;20333;-80
2022/09/21 13:36:42;;;;;;;;;;;14.60;99.90;;;;;;5004215;28;19976;-82
2022/09/21 13:39:07;;;;;;;;;;;14.60;99.90;;;;;;5002237;28;20311;-84
2022/09/21 13:41:33;;;;;;;;;;;14.70;99.90;;;;;;4979307;28;19926;-81
2022/09/21 13:43:59;;;;;;;;;;;14.70;99.90;;;;;;5002629;28;19949;-85
2022/09/21 13:46:36;;;;;;;;;;;14.80;99.90;;;;;;5004567;28;20364;-85
2022/09/21 13:49:10;;;;;;;;;;;14.80;99.90;;;;;;5011800;28;19932;-87
2022/09/21 13:51:59;;;;;;;;;;;14.80;99.90;;;;;;5009700;28;19926;-87
2022/09/21 13:54:44;;;;;;;;;;;14.90;99.90;;;;;;4994209;28;19926;-81
2022/09/21 13:57:22;;;;;;;;;;;14.80;99.90;;;;;;5007277;28;20288;-85
2022/09/21 13:59:58;;;;;;;;;;;14.80;99.90;;;;;;5005515;28;19979;-87
2022/09/21 14:02:31;;;;;;;;;;;14.80;99.90;;;;;;4997823;28;20013;-82
2022/09/21 14:05:00;;;;;;;;;;;14.80;99.90;;;;;;5012307;28;19925;-84
2022/09/21 14:07:29;;;;;;;;;;;14.80;99.90;;;;;;5007207;28;19926;-89
2022/09/21 14:09:58;;;;;;;;;;;14.80;99.90;;;;;;5007702;28;19925;-87
2022/09/21 14:12:25;;;;;;;;;;;14.80;99.90;;;;;;5006781;28;19960;-86
2022/09/21 14:15:23;;;;;;;;;;;14.70;99.90;;;;;;5022665;28;20004;-88
2022/09/21 14:18:06;;;;;;;;;;;14.70;99.90;;;;;;5008932;28;19925;-85
2022/09/21 14:20:32;;;;;;;;;;;14.70;99.90;;;;;;5003327;28;19976;-89
2022/09/21 14:23:10;;;;;;;;;;;14.60;99.90;;;;;;5002633;28;20304;-92
2022/09/21 14:25:51;;;;;;;;;;;14.60;99.90;;;;;;4997044;28;20343;-83
2022/09/21 14:28:25;;;;;;;;;;;14.60;99.90;;;;;;5002603;28;19977;-83
2022/09/21 14:30:54;;;;;;;;;;;14.60;99.90;;;;;;5006744;28;19936;-79
2022/09/21 14:33:32;;;;;;;;;;;14.50;99.90;;;;;;4999521;28;19955;-80
2022/09/21 14:36:00;;;;;;;;;;;14.50;99.90;;;;;;5004023;28;19926;-80
2022/09/21 14:38:28;;;;;;;;;;;14.50;99.90;;;;;;5005169;28;19965;-79
2022/09/21 14:40:59;;;;;;;;;;;14.50;99.90;;;;;;5006849;28;19984;-78